createdAt,value
2023-04-02T00:01:26.612Z,97.28
2023-04-02T00:04:22.462Z,98.12
2023-04-02T00:07:17.904Z,97.58
2023-04-02T00:09:46.337Z,97.71
2023-04-02T00:12:17.962Z,98.11
2023-04-02T00:14:52.694Z,98.24
2023-04-02T00:17:25.758Z,97.65
2023-04-02T00:19:58.126Z,97.54
2023-04-02T00:22:28.623Z,97.44
2023-04-02T00:24:57.620Z,98.44
2023-04-02T00:27:25.662Z,97.70
2023-04-02T00:29:56.281Z,97.21
2023-04-02T00:32:28.540Z,97.16
2023-04-02T00:34:57.168Z,96.72
2023-04-02T00:37:28.298Z,96.30
2023-04-02T00:40:01.582Z,96.67
2023-04-02T00:42:32.150Z,96.37
2023-04-02T00:45:02.239Z,96.63
2023-04-02T00:47:34.329Z,95.92
2023-04-02T00:50:07.134Z,95.78
2023-04-02T00:52:37.098Z,95.71
2023-04-02T00:55:10.475Z,96.57
2023-04-02T00:57:38.814Z,95.64
2023-04-02T01:00:22.513Z,95.65
2023-04-02T01:03:28.855Z,95.02
2023-04-02T01:06:04.914Z,95.16
2023-04-02T01:08:53.298Z,95.27
2023-04-02T01:11:33.181Z,95.23
2023-04-02T01:14:09.667Z,95.67
2023-04-02T01:16:50.347Z,95.71
2023-04-02T01:19:46.498Z,94.79
2023-04-02T01:22:23.566Z,94.53
2023-04-02T01:24:51.919Z,94.39
2023-04-02T01:27:25.900Z,94.47
2023-04-02T01:29:57.600Z,93.98
2023-04-02T01:32:29.040Z,94.11
2023-04-02T01:34:58.395Z,93.53
2023-04-02T01:37:38.752Z,93.29
2023-04-02T01:40:20.120Z,93.28
2023-04-02T01:42:58.925Z,92.29
2023-04-02T01:45:28.831Z,92.46
2023-04-02T01:47:57.171Z,92.43
2023-04-02T01:50:32.252Z,93.03
2023-04-02T01:53:03.149Z,92.49
2023-04-02T01:55:35.845Z,92.64
2023-04-02T01:58:04.902Z,93.13
2023-04-02T02:00:37.410Z,93.82
2023-04-02T02:03:08.514Z,93.54
2023-04-02T02:05:37.297Z,93.52
2023-04-02T02:08:09.787Z,93.99
2023-04-02T02:10:40.070Z,94.40
2023-04-02T02:13:07.857Z,94.55
2023-04-02T02:15:37.556Z,94.41
2023-04-02T02:18:07.744Z,94.79
2023-04-02T02:20:36.492Z,95.38
2023-04-02T02:23:05.471Z,94.54
2023-04-02T02:25:37.093Z,94.58
2023-04-02T02:28:09.285Z,94.69
2023-04-02T02:30:42.970Z,95.01
2023-04-02T02:33:17.963Z,94.64
2023-04-02T02:35:53.704Z,94.21
2023-04-02T02:38:42.026Z,94.90
2023-04-02T02:41:17.216Z,95.26
2023-04-02T02:43:51.288Z,94.40
2023-04-02T02:46:24.838Z,93.40
2023-04-02T02:48:54.827Z,93.44
2023-04-02T02:51:29.037Z,94.09
2023-04-02T02:54:02.228Z,94.15
2023-04-02T02:56:33.082Z,93.09
2023-04-02T02:59:01.890Z,93.87
2023-04-02T03:01:33.426Z,93.44
2023-04-02T03:04:02.150Z,93.78
2023-04-02T03:06:30.122Z,94.41
2023-04-02T03:09:05.881Z,94.36
2023-04-02T03:11:41.006Z,94.60
2023-04-02T03:14:21.427Z,94.21
2023-04-02T03:16:53.870Z,94.36
2023-04-02T03:19:30.138Z,94.47
2023-04-02T03:22:03.298Z,93.96
2023-04-02T03:24:37.944Z,94.38
2023-04-02T03:27:13.083Z,93.97
2023-04-02T03:29:43.626Z,93.90
2023-04-02T03:32:18.400Z,93.49
2023-04-02T03:34:50.480Z,94.16
2023-04-02T03:37:23.985Z,94.44
2023-04-02T03:39:56.507Z,93.84
2023-04-02T03:42:26.327Z,94.11
2023-04-02T03:44:59.529Z,93.66
2023-04-02T03:47:35.523Z,94.01
2023-04-02T03:50:08.537Z,93.67
2023-04-02T03:52:38.470Z,93.56
2023-04-02T03:55:15.805Z,94.64
2023-04-02T03:57:52.890Z,94.64
2023-04-02T04:00:27.287Z,94.59
2023-04-02T04:02:59.990Z,94.54
2023-04-02T04:05:31.320Z,94.17
2023-04-02T04:08:03.909Z,93.84
2023-04-02T04:10:32.846Z,93.20
2023-04-02T04:13:07.626Z,93.79
2023-04-02T04:15:39.991Z,93.87
2023-04-02T04:18:20.019Z,93.93
2023-04-02T04:20:56.316Z,93.88
2023-04-02T04:23:31.081Z,94.40
2023-04-02T04:26:01.845Z,94.24
2023-04-02T04:28:38.494Z,94.17
2023-04-02T04:31:20.954Z,94.34
2023-04-02T04:33:55.950Z,94.90
2023-04-02T04:36:28.647Z,94.50
2023-04-02T04:39:00.508Z,94.99
2023-04-02T04:41:33.183Z,95.28
2023-04-02T04:44:05.844Z,94.99
2023-04-02T04:46:39.806Z,95.10
2023-04-02T04:49:12.761Z,95.10
2023-04-02T04:51:46.257Z,95.43
2023-04-02T04:54:15.566Z,95.47
2023-04-02T04:56:48.462Z,95.44
2023-04-02T04:59:23.041Z,95.82
2023-04-02T05:01:56.525Z,94.69
2023-04-02T05:04:32.590Z,94.65
2023-04-02T05:07:06.002Z,94.36
2023-04-02T05:09:38.698Z,93.82
2023-04-02T05:12:18.113Z,94.05
2023-04-02T05:14:53.133Z,92.94
2023-04-02T05:17:27.274Z,93.12
2023-04-02T05:20:02.212Z,93.17
2023-04-02T05:22:37.138Z,93.63
2023-04-02T05:25:18.508Z,93.90
2023-04-02T05:27:52.540Z,93.01
2023-04-02T05:30:49.474Z,93.35
2023-04-02T05:33:23.931Z,93.09
2023-04-02T05:35:59.287Z,91.74
2023-04-02T05:38:29.896Z,91.58
2023-04-02T05:41:02.684Z,91.57
2023-04-02T05:43:34.163Z,91.63
2023-04-02T05:46:09.168Z,92.17
2023-04-02T05:48:40.533Z,91.99
2023-04-02T05:51:17.617Z,91.75
2023-04-02T05:53:50.982Z,92.17
2023-04-02T05:56:21.905Z,92.67
2023-04-02T05:58:54.137Z,91.85
2023-04-02T06:01:33.566Z,92.00
2023-04-02T06:04:08.311Z,91.88
2023-04-02T06:06:54.911Z,91.84
2023-04-02T06:09:32.183Z,91.59
2023-04-02T06:12:12.729Z,92.31
2023-04-02T06:14:40.536Z,91.87
2023-04-02T06:17:10.555Z,92.34
2023-04-02T06:19:39.954Z,92.26
2023-04-02T06:22:22.381Z,92.62
2023-04-02T06:24:57.131Z,90.81
2023-04-02T06:27:27.470Z,90.75
2023-04-02T06:30:00.498Z,90.89
2023-04-02T06:32:28.488Z,90.79
2023-04-02T06:34:56.663Z,91.09
2023-04-02T06:37:31.384Z,90.94
2023-04-02T06:40:00.427Z,90.69
2023-04-02T06:42:31.958Z,91.05
2023-04-02T06:45:00.468Z,91.70
2023-04-02T06:47:33.400Z,91.79
2023-04-02T06:50:07.453Z,91.85
2023-04-02T06:53:12.668Z,91.71
2023-04-02T06:56:29.086Z,91.90
2023-04-02T06:59:36.306Z,91.71
2023-04-02T07:03:10.395Z,91.42
2023-04-02T07:06:00.621Z,91.40
2023-04-02T07:08:29.931Z,90.57
2023-04-02T07:10:58.375Z,90.72
2023-04-02T07:13:26.482Z,89.53
2023-04-02T07:15:56.121Z,90.54
2023-04-02T07:18:26.810Z,89.42
2023-04-02T07:20:55.268Z,89.50
2023-04-02T07:23:23.096Z,89.21
2023-04-02T07:25:55.364Z,88.50
2023-04-02T07:28:23.513Z,88.66
2023-04-02T07:30:52.369Z,87.66
2023-04-02T07:33:23.509Z,87.32
2023-04-02T07:35:51.916Z,87.67
2023-04-02T07:38:19.737Z,87.43
2023-04-02T07:40:47.757Z,87.15
2023-04-02T07:43:16.908Z,86.84
2023-04-02T07:45:44.744Z,86.64
2023-04-02T07:48:14.670Z,86.48
2023-04-02T07:50:42.533Z,86.41
2023-04-02T07:53:27.091Z,85.98
2023-04-02T07:55:54.912Z,86.08
2023-04-02T07:58:24.112Z,86.75
2023-04-02T08:00:51.982Z,87.09
2023-04-02T08:03:19.846Z,86.51
2023-04-02T08:05:52.516Z,86.28
2023-04-02T08:08:20.954Z,86.48
2023-04-02T08:10:49.011Z,85.95
2023-04-02T08:13:17.492Z,85.38
2023-04-02T08:15:47.009Z,85.78
2023-04-02T08:18:15.010Z,85.87
2023-04-02T08:20:42.937Z,85.65
2023-04-02T08:23:17.162Z,85.62
2023-04-02T08:25:45.107Z,85.32
2023-04-02T08:28:13.028Z,85.49
2023-04-02T08:30:41.824Z,84.41
2023-04-02T08:33:11.473Z,83.37
2023-04-02T08:35:39.455Z,82.59
2023-04-02T08:38:07.464Z,80.47
2023-04-02T08:40:37.631Z,79.83
2023-04-02T08:43:21.179Z,79.62
2023-04-02T08:46:02.084Z,79.58
2023-04-02T08:48:33.601Z,77.89
2023-04-02T08:51:02.934Z,78.21
2023-04-02T08:53:34.554Z,77.73
2023-04-02T08:56:09.784Z,77.65
2023-04-02T08:58:43.000Z,75.73
2023-04-02T09:01:22.827Z,74.55
2023-04-02T09:03:57.118Z,76.67
2023-04-02T09:06:26.263Z,76.17
2023-04-02T09:08:55.402Z,75.46
2023-04-02T09:11:25.957Z,75.12
2023-04-02T09:13:57.542Z,76.61
2023-04-02T09:16:39.012Z,74.50
2023-04-02T09:19:17.469Z,74.81
2023-04-02T09:21:49.588Z,76.33
2023-04-02T09:24:17.390Z,76.42
2023-04-02T09:26:45.121Z,75.88
2023-04-02T09:29:29.628Z,75.94
2023-04-02T09:32:05.607Z,77.68
2023-04-02T09:34:36.743Z,77.53
2023-04-02T09:37:09.787Z,77.09
2023-04-02T09:39:37.973Z,77.43
2023-04-02T09:42:28.228Z,75.92
2023-04-02T09:45:13.852Z,75.19
2023-04-02T09:47:42.542Z,76.00
2023-04-02T09:50:29.985Z,76.20
2023-04-02T09:52:57.752Z,76.54
2023-04-02T09:55:28.768Z,76.87
2023-04-02T09:58:16.680Z,74.76
2023-04-02T10:00:52.172Z,73.73
2023-04-02T10:03:25.647Z,73.24
2023-04-02T10:06:09.414Z,74.20
2023-04-02T10:08:38.920Z,75.32
2023-04-02T10:11:12.413Z,73.12
2023-04-02T10:13:50.082Z,71.91
2023-04-02T10:16:26.476Z,71.70
2023-04-02T10:18:58.840Z,72.27
2023-04-02T10:21:32.058Z,71.60
2023-04-02T10:24:00.372Z,70.43
2023-04-02T10:26:44.564Z,72.97
2023-04-02T10:29:31.950Z,73.25
2023-04-02T10:32:06.093Z,73.89
2023-04-02T10:34:43.995Z,73.98
2023-04-02T10:38:01.154Z,74.23
2023-04-02T10:40:35.022Z,72.96
2023-04-02T10:43:29.010Z,72.54
2023-04-02T10:46:03.542Z,72.86
2023-04-02T10:48:40.449Z,73.37
2023-04-02T10:51:15.146Z,73.58
2023-04-02T10:53:53.352Z,73.72
2023-04-02T10:56:24.152Z,71.82
2023-04-02T10:58:57.427Z,72.94
2023-04-02T11:01:29.964Z,72.12
2023-04-02T11:04:02.448Z,71.41
2023-04-02T11:06:34.213Z,73.38
2023-04-02T11:09:07.413Z,72.15
2023-04-02T11:11:39.847Z,72.14
2023-04-02T11:14:14.837Z,71.83
2023-04-02T11:16:44.477Z,72.24
2023-04-02T11:19:26.186Z,71.62
2023-04-02T11:22:00.218Z,71.72
2023-04-02T11:24:38.649Z,72.81
2023-04-02T11:27:15.988Z,70.84
2023-04-02T11:29:46.637Z,72.18
2023-04-02T11:32:30.047Z,69.98
2023-04-02T11:35:26.597Z,70.97
2023-04-02T11:37:55.744Z,70.53
2023-04-02T11:40:49.395Z,69.56
2023-04-02T11:43:50.229Z,70.08
2023-04-02T11:46:40.229Z,72.50
